Time;durP1;ratioP1;P1;durP2;ratioP2;P2;SDS_P1;SDS_P2;PMS_P1;PMS_P2;Temp;Humidity;BMP_temperature;BMP_pressure;BME280_temperature;BME280_humidity;BME280_pressure;Samples;Min_cycle;Max_cycle;Signal;HPM_P1;HPM_P2
2023/10/21 00:01:01;;;;;;;;;;;19.50;57.80;;;;;;6317987;28;19908;-67
2023/10/21 00:04:02;;;;;;;;;;;19.50;58.50;;;;;;6319172;28;20420;-67
2023/10/21 00:07:03;;;;;;;;;;;19.60;57.90;;;;;;6317990;28;19909;-67
2023/10/21 00:10:06;;;;;;;;;;;19.50;57.80;;;;;;6318720;28;19947;-67
2023/10/21 00:13:07;;;;;;;;;;;19.50;57.80;;;;;;6319123;28;19908;-67
2023/10/21 00:16:07;;;;;;;;;;;19.60;57.90;;;;;;6318723;28;19912;-67
2023/10/21 00:19:10;;;;;;;;;;;19.50;57.80;;;;;;6318401;28;19920;-67
2023/10/21 00:22:11;;;;;;;;;;;19.50;57.90;;;;;;6319004;28;19962;-67
2023/10/21 00:25:12;;;;;;;;;;;19.50;57.80;;;;;;6318083;28;19916;-67
2023/10/21 00:28:12;;;;;;;;;;;19.50;57.80;;;;;;6316737;28;19911;-67
2023/10/21 00:31:13;;;;;;;;;;;19.50;57.80;;;;;;6318340;28;19912;-68
2023/10/21 00:34:14;;;;;;;;;;;19.50;57.80;;;;;;6314971;28;19908;-67
2023/10/21 00:37:15;;;;;;;;;;;19.50;57.90;;;;;;6316722;28;19917;-67
2023/10/21 00:40:15;;;;;;;;;;;19.50;57.80;;;;;;6318179;28;20178;-67
2023/10/21 00:43:31;;;;;;;;;;;19.50;57.80;;;;;;6318221;28;19908;-67
2023/10/21 00:46:32;;;;;;;;;;;19.60;58.00;;;;;;6315950;28;19953;-67
2023/10/21 00:49:33;;;;;;;;;;;19.50;57.80;;;;;;6316291;28;19912;-67
2023/10/21 00:52:37;;;;;;;;;;;19.50;57.80;;;;;;6318055;28;19958;-67
2023/10/21 00:55:38;;;;;;;;;;;19.50;57.80;;;;;;6317574;28;20355;-67
2023/10/21 00:58:40;;;;;;;;;;;19.50;57.80;;;;;;6316091;28;19954;-67
2023/10/21 01:01:43;;;;;;;;;;;19.50;57.80;;;;;;6318189;28;19908;-68
2023/10/21 01:04:44;;;;;;;;;;;19.50;57.90;;;;;;6317724;28;19908;-67
2023/10/21 01:07:45;;;;;;;;;;;19.50;57.90;;;;;;6317799;28;20304;-67
2023/10/21 01:10:46;;;;;;;;;;;19.50;57.90;;;;;;6317184;28;19916;-67
2023/10/21 01:13:48;;;;;;;;;;;19.50;57.80;;;;;;6317631;28;19930;-67
2023/10/21 01:16:49;;;;;;;;;;;19.50;57.80;;;;;;6316096;28;19912;-67
2023/10/21 01:19:50;;;;;;;;;;;19.50;57.90;;;;;;6317379;28;19908;-67
2023/10/21 01:22:50;;;;;;;;;;;19.50;57.90;;;;;;6317250;28;19951;-67
2023/10/21 01:25:51;;;;;;;;;;;19.50;57.80;;;;;;6315583;28;20046;-67
2023/10/21 01:28:52;;;;;;;;;;;19.50;57.90;;;;;;6315843;28;19919;-67
2023/10/21 01:31:52;;;;;;;;;;;19.50;57.80;;;;;;6315412;28;19960;-67
2023/10/21 01:34:53;;;;;;;;;;;19.50;57.80;;;;;;6317325;28;19913;-67
2023/10/21 01:37:53;;;;;;;;;;;19.50;57.80;;;;;;6317081;28;19914;-68
2023/10/21 01:40:54;;;;;;;;;;;19.50;57.90;;;;;;6316978;28;19971;-67
2023/10/21 01:43:55;;;;;;;;;;;19.50;57.80;;;;;;6317339;28;19934;-67
2023/10/21 01:46:55;;;;;;;;;;;19.50;57.80;;;;;;6316343;28;19991;-67
2023/10/21 01:49:57;;;;;;;;;;;19.60;57.90;;;;;;6316242;28;19908;-67
2023/10/21 01:52:58;;;;;;;;;;;19.50;57.90;;;;;;6317484;28;19919;-67
2023/10/21 01:56:02;;;;;;;;;;;19.50;57.80;;;;;;6321057;28;19916;-67
2023/10/21 01:59:03;;;;;;;;;;;19.50;57.80;;;;;;6320708;28;19938;-67
2023/10/21 02:02:03;;;;;;;;;;;19.50;57.80;;;;;;6316462;28;19908;-67
2023/10/21 02:05:05;;;;;;;;;;;19.50;57.90;;;;;;6321782;28;19912;-67
2023/10/21 02:08:06;;;;;;;;;;;19.50;57.90;;;;;;6321564;28;19912;-67
2023/10/21 02:11:08;;;;;;;;;;;19.50;57.80;;;;;;6321230;28;20413;-67
2023/10/21 02:14:08;;;;;;;;;;;19.50;57.80;;;;;;6322003;28;19919;-67
2023/10/21 02:17:09;;;;;;;;;;;19.50;57.90;;;;;;6321354;28;19912;-67
2023/10/21 02:20:12;;;;;;;;;;;19.50;57.80;;;;;;6321510;28;20235;-67
2023/10/21 02:23:13;;;;;;;;;;;19.50;57.80;;;;;;6319737;28;19934;-67
2023/10/21 02:26:14;;;;;;;;;;;19.50;57.90;;;;;;6312217;28;19912;-67
2023/10/21 02:29:15;;;;;;;;;;;19.50;57.90;;;;;;6320014;28;19923;-67
2023/10/21 02:32:16;;;;;;;;;;;19.50;57.90;;;;;;6319575;28;20578;-67
2023/10/21 02:35:16;;;;;;;;;;;19.50;58.00;;;;;;6321666;28;20002;-67
2023/10/21 02:38:17;;;;;;;;;;;19.50;57.90;;;;;;6320462;28;20298;-67
2023/10/21 02:41:18;;;;;;;;;;;19.50;58.00;;;;;;6320977;28;19955;-67
2023/10/21 02:44:18;;;;;;;;;;;19.50;57.90;;;;;;6321236;28;19912;-67
2023/10/21 02:47:19;;;;;;;;;;;19.50;57.90;;;;;;6319227;28;19912;-67
2023/10/21 02:50:20;;;;;;;;;;;19.50;58.00;;;;;;6320883;28;19908;-67
2023/10/21 02:53:20;;;;;;;;;;;19.50;57.90;;;;;;6320314;28;20042;-67
2023/10/21 02:56:21;;;;;;;;;;;19.50;57.90;;;;;;6321038;28;19909;-67
2023/10/21 02:59:22;;;;;;;;;;;19.50;57.90;;;;;;6319977;28;19912;-67
2023/10/21 03:02:22;;;;;;;;;;;19.50;58.00;;;;;;6320521;28;19914;-67
2023/10/21 03:05:23;;;;;;;;;;;19.50;58.00;;;;;;6319611;28;19935;-67
2023/10/21 03:08:24;;;;;;;;;;;19.50;57.90;;;;;;6319724;28;20021;-67
2023/10/21 03:11:25;;;;;;;;;;;19.50;58.00;;;;;;6320245;28;19909;-67
2023/10/21 03:14:26;;;;;;;;;;;19.50;58.00;;;;;;6312311;28;19908;-67
2023/10/21 03:17:26;;;;;;;;;;;19.50;57.90;;;;;;6320378;28;19908;-67
2023/10/21 03:20:30;;;;;;;;;;;19.50;57.90;;;;;;6320002;28;19944;-67
2023/10/21 03:23:31;;;;;;;;;;;19.50;58.00;;;;;;6319761;28;20416;-67
2023/10/21 03:26:32;;;;;;;;;;;19.50;58.00;;;;;;6319898;28;19958;-67
2023/10/21 03:29:32;;;;;;;;;;;19.50;57.90;;;;;;6318028;28;20659;-67
2023/10/21 03:32:33;;;;;;;;;;;19.50;57.90;;;;;;6319965;28;19908;-67
2023/10/21 03:35:34;;;;;;;;;;;19.50;57.90;;;;;;6318449;28;19908;-67
2023/10/21 03:38:34;;;;;;;;;;;19.50;57.80;;;;;;6319331;28;19908;-67
2023/10/21 03:41:35;;;;;;;;;;;19.50;58.00;;;;;;6319213;28;19914;-67
2023/10/21 03:44:35;;;;;;;;;;;19.50;57.90;;;;;;6318327;28;20019;-67
2023/10/21 03:47:36;;;;;;;;;;;19.50;57.90;;;;;;6319640;28;20275;-67
2023/10/21 03:50:37;;;;;;;;;;;19.50;58.00;;;;;;6319113;28;20363;-67
2023/10/21 03:53:42;;;;;;;;;;;19.50;58.00;;;;;;6319316;28;19908;-68
2023/10/21 03:56:42;;;;;;;;;;;19.50;57.90;;;;;;6319068;28;19962;-67
2023/10/21 04:03:21;;;;;;;;;;;19.50;58.00;;;;;;6319089;28;20484;-68
2023/10/21 04:06:22;;;;;;;;;;;19.50;58.00;;;;;;6318689;28;19966;-68
2023/10/21 04:09:23;;;;;;;;;;;19.50;58.10;;;;;;6318800;28;19999;-67
2023/10/21 04:12:24;;;;;;;;;;;19.50;58.00;;;;;;6316944;28;19915;-68
2023/10/21 04:15:25;;;;;;;;;;;19.50;58.00;;;;;;6318711;28;19908;-67
2023/10/21 04:18:25;;;;;;;;;;;19.50;58.00;;;;;;6317300;28;19908;-67
2023/10/21 04:21:26;;;;;;;;;;;19.50;58.00;;;;;;6318694;28;19915;-68
2023/10/21 04:24:27;;;;;;;;;;;19.50;58.70;;;;;;6310271;28;19914;-68
2023/10/21 04:27:27;;;;;;;;;;;19.50;58.00;;;;;;6318359;28;20018;-67
2023/10/21 04:30:28;;;;;;;;;;;19.50;58.10;;;;;;6318349;28;19920;-67
2023/10/21 04:33:29;;;;;;;;;;;19.50;58.10;;;;;;6318154;28;19912;-67
2023/10/21 04:36:29;;;;;;;;;;;19.50;58.00;;;;;;6318614;28;19908;-68
2023/10/21 04:39:30;;;;;;;;;;;19.50;58.10;;;;;;6318420;28;19951;-67
2023/10/21 04:42:31;;;;;;;;;;;19.50;58.00;;;;;;6318000;28;20443;-67
2023/10/21 04:45:32;;;;;;;;;;;19.50;58.00;;;;;;6318259;28;20007;-67
2023/10/21 04:48:32;;;;;;;;;;;19.50;58.00;;;;;;6317897;28;20418;-67
2023/10/21 04:51:33;;;;;;;;;;;19.50;58.00;;;;;;6316766;28;19962;-67
2023/10/21 04:54:33;;;;;;;;;;;19.50;58.00;;;;;;6317886;28;19912;-67
2023/10/21 04:57:34;;;;;;;;;;;19.50;58.00;;;;;;6316337;28;19912;-67
2023/10/21 05:00:35;;;;;;;;;;;19.50;58.10;;;;;;6317659;28;19951;-67
2023/10/21 05:03:35;;;;;;;;;;;19.50;58.00;;;;;;6311846;28;19954;-68
2023/10/21 05:06:36;;;;;;;;;;;19.50;58.70;;;;;;6317493;28;19933;-67
2023/10/21 05:09:37;;;;;;;;;;;19.50;58.00;;;;;;6317949;28;20346;-67
2023/10/21 05:12:38;;;;;;;;;;;19.50;58.00;;;;;;6317835;28;20370;-67
2023/10/21 05:15:38;;;;;;;;;;;19.50;58.00;;;;;;6317500;28;20033;-67
2023/10/21 05:18:39;;;;;;;;;;;19.50;58.00;;;;;;6317002;28;19919;-67
2023/10/21 05:21:39;;;;;;;;;;;19.50;57.90;;;;;;6317969;28;19908;-67
2023/10/21 05:24:40;;;;;;;;;;;19.50;58.00;;;;;;6317158;28;19962;-67
2023/10/21 05:27:41;;;;;;;;;;;19.50;58.00;;;;;;6314547;28;19912;-67
2023/10/21 05:30:43;;;;;;;;;;;19.50;58.10;;;;;;6320986;28;19916;-67
2023/10/21 05:33:44;;;;;;;;;;;19.50;58.10;;;;;;6322619;28;20370;-67
2023/10/21 05:36:45;;;;;;;;;;;19.50;58.00;;;;;;6321548;28;19908;-67
2023/10/21 05:39:46;;;;;;;;;;;19.50;58.00;;;;;;6321159;28;19931;-67
2023/10/21 05:42:47;;;;;;;;;;;19.50;58.00;;;;;;6322625;28;20369;-67
2023/10/21 05:45:47;;;;;;;;;;;19.50;58.00;;;;;;6312887;28;19912;-67
2023/10/21 05:48:48;;;;;;;;;;;19.50;58.00;;;;;;6322252;28;19912;-67
2023/10/21 05:51:48;;;;;;;;;;;19.50;58.10;;;;;;6322418;28;20006;-67
2023/10/21 05:54:49;;;;;;;;;;;19.50;58.00;;;;;;6322581;28;19933;-67
2023/10/21 05:57:50;;;;;;;;;;;19.50;58.00;;;;;;6322099;28;19908;-67
2023/10/21 06:00:50;;;;;;;;;;;19.50;58.00;;;;;;6321932;28;20351;-68
2023/10/21 06:03:51;;;;;;;;;;;19.50;58.00;;;;;;6321995;28;19958;-67
2023/10/21 06:06:54;;;;;;;;;;;19.50;58.00;;;;;;6322083;28;19912;-67
2023/10/21 06:09:55;;;;;;;;;;;19.50;58.00;;;;;;6322034;28;20406;-67
2023/10/21 06:12:55;;;;;;;;;;;19.50;58.00;;;;;;6322277;28;19908;-67
2023/10/21 06:15:56;;;;;;;;;;;19.50;58.00;;;;;;6321559;28;19939;-67
2023/10/21 06:18:57;;;;;;;;;;;19.50;58.00;;;;;;6320210;28;20374;-67
2023/10/21 06:21:58;;;;;;;;;;;19.50;58.00;;;;;;6321878;28;19941;-68
2023/10/21 06:24:59;;;;;;;;;;;19.50;58.10;;;;;;6321557;28;21420;-67
2023/10/21 06:27:59;;;;;;;;;;;19.50;57.90;;;;;;6321705;28;19916;-67
2023/10/21 06:31:01;;;;;;;;;;;19.50;58.00;;;;;;6322051;28;19908;-67
2023/10/21 06:34:02;;;;;;;;;;;19.50;58.00;;;;;;6321715;28;19958;-67
2023/10/21 06:37:03;;;;;;;;;;;19.50;58.00;;;;;;6319985;28;20342;-67
2023/10/21 06:40:06;;;;;;;;;;;19.50;58.00;;;;;;6320393;28;19924;-67
2023/10/21 06:43:07;;;;;;;;;;;19.50;58.00;;;;;;6320337;28;19908;-67
2023/10/21 06:46:08;;;;;;;;;;;19.50;58.00;;;;;;6320758;28;19946;-67
2023/10/21 06:49:09;;;;;;;;;;;19.50;58.00;;;;;;6320736;28;19920;-67
2023/10/21 06:52:10;;;;;;;;;;;19.50;58.00;;;;;;6319092;28;19908;-67
2023/10/21 06:55:11;;;;;;;;;;;19.50;58.10;;;;;;6312638;28;19973;-68
2023/10/21 06:58:11;;;;;;;;;;;19.50;58.00;;;;;;6320936;28;19913;-67
2023/10/21 07:01:12;;;;;;;;;;;19.50;58.10;;;;;;6320755;28;20298;-67
2023/10/21 07:04:14;;;;;;;;;;;19.50;58.10;;;;;;6320901;28;20347;-67
2023/10/21 07:07:15;;;;;;;;;;;19.50;58.10;;;;;;6320804;28;19908;-67
2023/10/21 07:10:16;;;;;;;;;;;19.50;58.10;;;;;;6320571;28;19912;-67
2023/10/21 07:13:16;;;;;;;;;;;19.50;58.10;;;;;;6320652;28;20318;-67
2023/10/21 07:16:17;;;;;;;;;;;19.50;58.10;;;;;;6320872;28;19908;-67
2023/10/21 07:19:19;;;;;;;;;;;19.50;58.10;;;;;;6320710;28;19914;-67
2023/10/21 07:22:20;;;;;;;;;;;19.50;58.10;;;;;;6320452;28;19912;-67
2023/10/21 07:25:20;;;;;;;;;;;19.50;58.10;;;;;;6321161;28;19908;-67
2023/10/21 07:28:21;;;;;;;;;;;19.50;58.00;;;;;;6319969;28;19912;-67
2023/10/21 07:31:22;;;;;;;;;;;19.50;58.00;;;;;;6320861;28;19954;-67
2023/10/21 07:34:22;;;;;;;;;;;19.50;58.10;;;;;;6320297;28;19993;-67
2023/10/21 07:37:23;;;;;;;;;;;19.50;58.10;;;;;;6322075;28;19908;-67
2023/10/21 07:40:23;;;;;;;;;;;19.50;58.10;;;;;;6321510;28;19973;-67
2023/10/21 07:43:24;;;;;;;;;;;19.50;58.10;;;;;;6320237;28;19908;-67
2023/10/21 07:46:24;;;;;;;;;;;19.50;58.10;;;;;;6321115;28;20016;-67
2023/10/21 07:49:25;;;;;;;;;;;19.50;58.20;;;;;;6321938;28;19912;-67
2023/10/21 07:52:26;;;;;;;;;;;19.50;58.20;;;;;;6319199;28;20437;-67
2023/10/21 07:55:28;;;;;;;;;;;19.50;58.20;;;;;;6321434;28;19916;-67
2023/10/21 07:58:29;;;;;;;;;;;19.50;58.10;;;;;;6321163;28;19919;-67
2023/10/21 08:01:30;;;;;;;;;;;19.50;58.20;;;;;;6321064;28;20266;-67
2023/10/21 08:04:31;;;;;;;;;;;19.50;58.20;;;;;;6320960;28;19908;-67
2023/10/21 08:07:32;;;;;;;;;;;19.50;58.20;;;;;;6321370;28;19934;-67
2023/10/21 08:10:33;;;;;;;;;;;19.50;58.10;;;;;;6319530;28;19908;-67
2023/10/21 08:13:34;;;;;;;;;;;19.50;58.20;;;;;;6320792;28;19912;-67
2023/10/21 08:16:35;;;;;;;;;;;19.50;58.10;;;;;;6320605;28;19915;-67
2023/10/21 08:19:36;;;;;;;;;;;19.50;58.20;;;;;;6320714;28;19911;-67
2023/10/21 08:22:37;;;;;;;;;;;19.50;58.20;;;;;;6319719;28;20405;-67
2023/10/21 08:25:39;;;;;;;;;;;19.50;58.20;;;;;;6321151;28;19908;-67
2023/10/21 08:28:41;;;;;;;;;;;19.50;58.20;;;;;;6321391;28;20015;-67
2023/10/21 08:31:41;;;;;;;;;;;19.50;58.20;;;;;;6321504;28;20390;-67
2023/10/21 08:34:42;;;;;;;;;;;19.50;58.20;;;;;;6321299;28;19908;-67
2023/10/21 08:37:43;;;;;;;;;;;19.50;58.30;;;;;;6321387;28;19951;-67
2023/10/21 08:40:46;;;;;;;;;;;19.50;58.30;;;;;;6319804;28;19920;-67
2023/10/21 08:43:48;;;;;;;;;;;19.50;58.30;;;;;;6320857;28;19944;-67
2023/10/21 08:46:49;;;;;;;;;;;19.50;58.30;;;;;;6320781;28;19908;-67
2023/10/21 08:49:50;;;;;;;;;;;19.50;58.30;;;;;;6320779;28;20421;-67
2023/10/21 08:52:54;;;;;;;;;;;19.50;58.30;;;;;;6319818;28;19908;-67
2023/10/21 08:55:55;;;;;;;;;;;19.50;58.30;;;;;;6320050;28;19908;-67
2023/10/21 08:58:59;;;;;;;;;;;19.50;58.30;;;;;;6320194;28;20026;-68
2023/10/21 09:01:59;;;;;;;;;;;19.50;58.30;;;;;;6319820;28;19947;-67
2023/10/21 09:05:08;;;;;;;;;;;19.50;58.40;;;;;;6318652;28;20025;-67
2023/10/21 09:08:08;;;;;;;;;;;19.50;58.30;;;;;;6318283;28;19958;-67
2023/10/21 09:11:10;;;;;;;;;;;19.50;58.30;;;;;;6319664;28;19920;-67
2023/10/21 09:14:11;;;;;;;;;;;19.50;58.30;;;;;;6318420;28;19912;-67
2023/10/21 09:17:12;;;;;;;;;;;19.50;58.30;;;;;;6319512;28;20441;-67
2023/10/21 09:20:14;;;;;;;;;;;19.50;58.30;;;;;;6319554;28;20417;-67
2023/10/21 09:23:14;;;;;;;;;;;19.50;58.20;;;;;;6319313;28;19916;-67
2023/10/21 09:26:16;;;;;;;;;;;19.50;58.30;;;;;;6319328;28;19908;-66
2023/10/21 09:29:22;;;;;;;;;;;19.60;58.30;;;;;;6315747;28;19920;-67
2023/10/21 09:32:33;;;;;;;;;;;19.50;58.20;;;;;;6318588;28;19957;-75
2023/10/21 09:35:35;;;;;;;;;;;19.60;58.20;;;;;;6317164;28;19908;-66
2023/10/21 09:38:37;;;;;;;;;;;19.60;58.20;;;;;;6318174;28;19912;-67
2023/10/21 09:41:38;;;;;;;;;;;19.60;58.40;;;;;;6317159;28;19908;-69
2023/10/21 09:44:41;;;;;;;;;;;19.70;58.10;;;;;;6344067;28;19919;-67
2023/10/21 09:47:42;;;;;;;;;;;19.70;58.60;;;;;;6326458;28;19920;-67
2023/10/21 09:50:46;;;;;;;;;;;19.70;59.00;;;;;;6326152;28;19912;-67
2023/10/21 09:53:47;;;;;;;;;;;19.80;58.70;;;;;;6324387;28;19908;-68
2023/10/21 09:56:48;;;;;;;;;;;19.80;58.70;;;;;;6317478;28;19915;-68
2023/10/21 09:59:49;;;;;;;;;;;19.80;58.90;;;;;;6318066;28;20271;-68
2023/10/21 10:02:50;;;;;;;;;;;19.90;58.90;;;;;;6317861;28;20038;-68
2023/10/21 10:05:51;;;;;;;;;;;19.90;58.80;;;;;;6318354;28;19908;-67
2023/10/21 10:08:52;;;;;;;;;;;19.90;59.00;;;;;;6318167;28;19959;-68
2023/10/21 10:11:58;;;;;;;;;;;20.00;59.10;;;;;;6318052;28;19908;-68
2023/10/21 10:14:59;;;;;;;;;;;20.00;59.50;;;;;;6318746;28;19919;-67
2023/10/21 10:18:01;;;;;;;;;;;20.00;59.40;;;;;;6322797;28;19908;-68
2023/10/21 10:21:04;;;;;;;;;;;20.00;59.50;;;;;;6322184;28;19952;-67
2023/10/21 10:24:07;;;;;;;;;;;20.00;59.60;;;;;;6317515;28;19908;-68
2023/10/21 10:27:08;;;;;;;;;;;20.00;60.00;;;;;;6321021;28;19947;-67
2023/10/21 10:30:14;;;;;;;;;;;20.00;60.20;;;;;;6321475;28;19915;-68
2023/10/21 10:33:16;;;;;;;;;;;20.00;61.00;;;;;;6320092;28;19914;-68
2023/10/21 10:36:26;;;;;;;;;;;20.00;60.60;;;;;;6320443;28;19909;-68
2023/10/21 10:39:39;;;;;;;;;;;20.00;60.50;;;;;;6319864;28;19920;-68
2023/10/21 10:42:39;;;;;;;;;;;20.00;60.70;;;;;;6311976;28;20277;-68
2023/10/21 10:45:40;;;;;;;;;;;20.00;61.00;;;;;;6314651;28;19908;-68
2023/10/21 10:48:42;;;;;;;;;;;20.00;61.00;;;;;;6321423;28;19919;-68
2023/10/21 10:51:43;;;;;;;;;;;20.00;61.40;;;;;;6329544;28;19908;-68
2023/10/21 10:54:44;;;;;;;;;;;20.00;60.80;;;;;;6321272;28;19908;-68
2023/10/21 10:57:44;;;;;;;;;;;20.00;61.10;;;;;;6319463;28;19949;-68
2023/10/21 11:00:46;;;;;;;;;;;20.00;61.80;;;;;;6320339;28;19909;-68
2023/10/21 11:04:00;;;;;;;;;;;20.10;61.80;;;;;;6319202;28;19908;-67
2023/10/21 11:07:03;;;;;;;;;;;20.10;61.80;;;;;;6320456;28;19934;-68
2023/10/21 11:10:06;;;;;;;;;;;20.10;61.90;;;;;;6321814;28;19975;-67
2023/10/21 11:13:07;;;;;;;;;;;20.10;62.00;;;;;;6320344;28;19908;-66
2023/10/21 11:16:08;;;;;;;;;;;20.00;62.10;;;;;;6318837;28;19908;-67
2023/10/21 11:19:09;;;;;;;;;;;20.00;62.10;;;;;;6318191;28;19916;-67
2023/10/21 11:22:19;;;;;;;;;;;19.90;61.80;;;;;;6316908;28;19918;-66
2023/10/21 11:25:20;;;;;;;;;;;19.90;61.80;;;;;;6318384;28;19919;-66
2023/10/21 11:28:22;;;;;;;;;;;19.90;62.20;;;;;;6317856;28;20290;-68
2023/10/21 11:31:23;;;;;;;;;;;19.90;62.70;;;;;;6318682;28;19915;-68
2023/10/21 11:34:23;;;;;;;;;;;19.90;62.40;;;;;;6318038;28;19909;-68
2023/10/21 11:37:24;;;;;;;;;;;20.00;62.30;;;;;;6319802;28;20287;-69
2023/10/21 11:40:25;;;;;;;;;;;20.00;63.10;;;;;;6315055;28;20065;-70
2023/10/21 11:43:27;;;;;;;;;;;20.00;63.10;;;;;;6319758;28;19943;-70
2023/10/21 11:46:29;;;;;;;;;;;20.00;63.20;;;;;;6317869;28;19908;-69
2023/10/21 11:49:37;;;;;;;;;;;20.00;63.60;;;;;;6318104;28;19916;-69
2023/10/21 11:52:43;;;;;;;;;;;20.00;63.70;;;;;;6311351;28;20201;-69
2023/10/21 12:05:51;;;;;;;;;;;20.00;62.90;;;;;;6323140;28;19908;-68
2023/10/21 12:44:14;;;;;;;;;;;19.80;62.30;;;;;;6319975;28;20406;-69
2023/10/21 12:47:16;;;;;;;;;;;19.80;62.30;;;;;;6318828;28;20045;-69
2023/10/21 12:50:17;;;;;;;;;;;19.80;62.30;;;;;;6318514;28;19912;-69
2023/10/21 12:53:18;;;;;;;;;;;19.80;62.20;;;;;;6319880;28;19946;-68
2023/10/21 12:56:18;;;;;;;;;;;19.80;62.20;;;;;;6320207;28;19987;-69
2023/10/21 12:59:21;;;;;;;;;;;19.80;62.10;;;;;;6319789;28;20069;-68
2023/10/21 13:02:21;;;;;;;;;;;19.80;62.10;;;;;;6319723;28;20065;-69
2023/10/21 13:05:22;;;;;;;;;;;19.80;62.00;;;;;;6318505;28;19908;-66
2023/10/21 13:08:24;;;;;;;;;;;19.80;62.00;;;;;;6319693;28;19912;-68
2023/10/21 13:11:24;;;;;;;;;;;19.80;62.00;;;;;;6319528;28;19918;-68
2023/10/21 13:14:27;;;;;;;;;;;19.80;62.00;;;;;;6319837;28;19908;-69
2023/10/21 13:17:27;;;;;;;;;;;19.80;61.90;;;;;;6319478;28;19991;-68
2023/10/21 13:20:28;;;;;;;;;;;19.80;62.00;;;;;;6319443;28;19953;-68
2023/10/21 13:23:29;;;;;;;;;;;19.70;61.80;;;;;;6319406;28;19962;-68
2023/10/21 13:26:29;;;;;;;;;;;19.80;61.80;;;;;;6319642;28;19962;-68
2023/10/21 13:29:30;;;;;;;;;;;19.70;61.70;;;;;;6318070;28;19919;-68
2023/10/21 13:32:31;;;;;;;;;;;19.70;61.70;;;;;;6319036;28;19908;-69
2023/10/21 13:35:34;;;;;;;;;;;19.80;61.80;;;;;;6309524;28;19916;-69
2023/10/21 13:38:34;;;;;;;;;;;19.70;61.60;;;;;;6311190;28;20270;-69
2023/10/21 13:41:35;;;;;;;;;;;19.80;61.70;;;;;;6318820;28;19912;-69
2023/10/21 13:44:36;;;;;;;;;;;19.70;61.60;;;;;;6317934;28;19915;-69
2023/10/21 13:47:37;;;;;;;;;;;19.70;61.60;;;;;;6319254;28;20060;-69
2023/10/21 13:50:38;;;;;;;;;;;19.70;61.60;;;;;;6320513;28;20002;-68
2023/10/21 13:53:39;;;;;;;;;;;19.70;61.60;;;;;;6323886;28;20009;-69
2023/10/21 13:56:39;;;;;;;;;;;19.70;61.50;;;;;;6324306;28;19912;-68
2023/10/21 13:59:45;;;;;;;;;;;19.70;61.50;;;;;;6322512;28;19908;-69
2023/10/21 14:02:45;;;;;;;;;;;19.70;61.50;;;;;;6324499;28;19939;-69
2023/10/21 14:05:50;;;;;;;;;;;19.70;61.50;;;;;;6323595;28;20397;-69
2023/10/21 14:08:51;;;;;;;;;;;19.70;61.50;;;;;;6323709;28;19912;-68
2023/10/21 14:11:53;;;;;;;;;;;19.70;61.50;;;;;;6323409;28;20382;-69
2023/10/21 14:15:05;;;;;;;;;;;19.70;61.50;;;;;;6323633;28;19934;-69
2023/10/21 14:18:06;;;;;;;;;;;19.70;61.50;;;;;;6310070;28;19955;-69
2023/10/21 14:21:09;;;;;;;;;;;19.70;61.40;;;;;;6311709;28;19954;-69
2023/10/21 14:24:09;;;;;;;;;;;19.70;61.50;;;;;;6307986;28;20010;-69
2023/10/21 14:27:10;;;;;;;;;;;19.70;61.40;;;;;;6319031;28;19915;-69
2023/10/21 14:30:11;;;;;;;;;;;19.70;61.40;;;;;;6323283;28;19954;-72
2023/10/21 14:33:16;;;;;;;;;;;19.70;61.40;;;;;;6322909;28;20449;-69
2023/10/21 14:36:16;;;;;;;;;;;19.70;61.40;;;;;;6323245;28;19908;-69
2023/10/21 14:39:17;;;;;;;;;;;19.70;61.40;;;;;;6321570;28;19920;-69
2023/10/21 14:42:18;;;;;;;;;;;19.70;61.40;;;;;;6322821;28;19914;-70
2023/10/21 14:45:19;;;;;;;;;;;19.70;61.40;;;;;;6322564;28;20034;-69
2023/10/21 14:48:19;;;;;;;;;;;19.70;61.40;;;;;;6315559;28;19924;-69
2023/10/21 14:51:20;;;;;;;;;;;19.70;61.40;;;;;;6311196;28;19915;-69
2023/10/21 14:54:20;;;;;;;;;;;19.70;61.40;;;;;;6322755;28;20381;-69
2023/10/21 14:57:22;;;;;;;;;;;19.70;61.30;;;;;;6322322;28;19935;-69
2023/10/21 15:00:23;;;;;;;;;;;19.70;61.30;;;;;;6322690;28;20323;-69
2023/10/21 15:03:24;;;;;;;;;;;19.70;61.30;;;;;;6321805;28;20332;-69
2023/10/21 15:06:27;;;;;;;;;;;19.70;61.30;;;;;;6322147;28;19954;-68
2023/10/21 15:09:28;;;;;;;;;;;19.70;61.20;;;;;;6322264;28;19921;-69
2023/10/21 15:12:29;;;;;;;;;;;19.70;61.20;;;;;;6322473;28;19912;-71
2023/10/21 15:15:29;;;;;;;;;;;19.70;61.30;;;;;;6313917;28;19912;-69
2023/10/21 15:18:30;;;;;;;;;;;19.70;61.20;;;;;;6305454;28;19908;-69
2023/10/21 15:21:31;;;;;;;;;;;19.70;61.20;;;;;;6320978;28;20430;-69
2023/10/21 15:24:32;;;;;;;;;;;19.70;61.20;;;;;;6322106;28;19919;-69
2023/10/21 15:27:33;;;;;;;;;;;19.70;61.20;;;;;;6321699;28;19961;-70
2023/10/21 15:30:34;;;;;;;;;;;19.70;61.20;;;;;;6321750;28;19919;-65
2023/10/21 15:33:35;;;;;;;;;;;19.70;61.20;;;;;;6308198;28;19912;-64
2023/10/21 15:36:36;;;;;;;;;;;19.70;61.10;;;;;;6312856;28;19908;-65
2023/10/21 15:39:36;;;;;;;;;;;19.70;61.20;;;;;;6316812;28;19965;-64
2023/10/21 15:42:37;;;;;;;;;;;19.70;61.20;;;;;;6319568;28;20007;-65
2023/10/21 15:45:37;;;;;;;;;;;19.70;61.20;;;;;;6319751;28;20011;-66
2023/10/21 15:48:38;;;;;;;;;;;19.70;61.30;;;;;;6318722;28;19920;-66
2023/10/21 15:51:39;;;;;;;;;;;19.70;61.10;;;;;;6319896;28;19919;-66
2023/10/21 15:54:39;;;;;;;;;;;19.80;61.20;;;;;;6319998;28;19919;-66
2023/10/21 15:57:40;;;;;;;;;;;19.80;61.20;;;;;;6303525;28;19961;-67
2023/10/21 16:00:40;;;;;;;;;;;19.80;61.20;;;;;;6316297;28;19951;-67
2023/10/21 16:03:41;;;;;;;;;;;19.80;61.20;;;;;;6316335;28;19908;-67
2023/10/21 16:06:41;;;;;;;;;;;19.80;61.40;;;;;;6316301;28;19915;-66
2023/10/21 16:09:43;;;;;;;;;;;19.80;61.40;;;;;;6315730;28;19916;-65
2023/10/21 16:12:43;;;;;;;;;;;19.70;61.40;;;;;;6306713;28;19913;-65
2023/10/21 16:15:52;;;;;;;;;;;19.70;61.50;;;;;;6314782;28;19912;-65
2023/10/21 16:18:52;;;;;;;;;;;19.70;61.50;;;;;;6321357;28;19908;-67
2023/10/21 16:21:54;;;;;;;;;;;19.70;61.60;;;;;;6315109;28;19912;-67
2023/10/21 16:24:54;;;;;;;;;;;19.70;61.80;;;;;;6317640;28;19908;-67
2023/10/21 16:27:55;;;;;;;;;;;19.70;61.80;;;;;;6312597;28;20298;-67
2023/10/21 16:30:56;;;;;;;;;;;19.70;61.80;;;;;;6309095;28;20015;-67
2023/10/21 16:33:56;;;;;;;;;;;19.70;61.90;;;;;;6317692;28;19908;-67
2023/10/21 16:36:57;;;;;;;;;;;19.70;61.80;;;;;;6313251;28;19908;-67
2023/10/21 16:39:58;;;;;;;;;;;19.70;61.80;;;;;;6315273;28;19920;-67
2023/10/21 16:42:59;;;;;;;;;;;19.70;61.80;;;;;;6315666;28;19916;-67
2023/10/21 16:46:01;;;;;;;;;;;19.60;61.70;;;;;;6314809;28;20011;-67
2023/10/21 16:49:02;;;;;;;;;;;19.60;61.60;;;;;;6321781;28;19943;-67
2023/10/21 16:52:03;;;;;;;;;;;19.60;61.60;;;;;;6321383;28;20071;-67
2023/10/21 16:55:04;;;;;;;;;;;19.60;61.60;;;;;;6314448;28;20357;-66
2023/10/21 16:58:04;;;;;;;;;;;19.60;61.40;;;;;;6314978;28;20031;-68
2023/10/21 17:01:05;;;;;;;;;;;19.60;61.40;;;;;;6309233;28;20589;-68
2023/10/21 17:04:05;;;;;;;;;;;19.60;61.40;;;;;;6312803;28;19935;-67
2023/10/21 17:07:06;;;;;;;;;;;19.60;61.30;;;;;;6314653;28;19908;-67
2023/10/21 17:10:07;;;;;;;;;;;19.60;61.20;;;;;;6313499;28;19912;-68
2023/10/21 17:13:08;;;;;;;;;;;19.70;61.20;;;;;;6313427;28;19916;-68
2023/10/21 17:16:08;;;;;;;;;;;19.60;61.20;;;;;;6313684;28;20007;-66
2023/10/21 17:19:09;;;;;;;;;;;19.70;61.20;;;;;;6314308;28;19965;-65
2023/10/21 17:22:09;;;;;;;;;;;19.60;60.70;;;;;;6314012;28;19965;-65
2023/10/21 17:25:12;;;;;;;;;;;19.60;60.80;;;;;;6318239;28;19915;-66
2023/10/21 17:28:13;;;;;;;;;;;19.60;60.90;;;;;;6312255;28;19916;-66
2023/10/21 17:31:14;;;;;;;;;;;19.60;60.80;;;;;;6313541;28;19955;-66
2023/10/21 17:34:14;;;;;;;;;;;19.60;60.90;;;;;;6313880;28;19908;-66
2023/10/21 17:37:17;;;;;;;;;;;19.60;60.90;;;;;;6313434;28;19914;-66
2023/10/21 17:40:17;;;;;;;;;;;19.60;60.90;;;;;;6313419;28;19931;-66
2023/10/21 17:43:20;;;;;;;;;;;19.60;60.80;;;;;;6321065;28;19908;-66
2023/10/21 17:46:24;;;;;;;;;;;19.60;60.80;;;;;;6309360;28;20406;-66
2023/10/21 17:49:24;;;;;;;;;;;19.70;60.80;;;;;;6312645;28;20656;-65
2023/10/21 17:52:25;;;;;;;;;;;19.70;60.90;;;;;;6314934;28;19908;-65
2023/10/21 17:55:26;;;;;;;;;;;19.70;60.90;;;;;;6315790;28;19919;-66
2023/10/21 17:58:26;;;;;;;;;;;19.70;61.00;;;;;;6314611;28;19908;-66
2023/10/21 18:01:26;;;;;;;;;;;19.70;61.00;;;;;;6315176;28;19908;-66
2023/10/21 18:04:29;;;;;;;;;;;19.70;61.00;;;;;;6315249;28;19908;-67
2023/10/21 18:07:30;;;;;;;;;;;19.70;61.00;;;;;;6314707;28;19912;-65
2023/10/21 18:10:30;;;;;;;;;;;19.70;61.10;;;;;;6314778;28;20222;-66
2023/10/21 18:13:31;;;;;;;;;;;19.70;61.00;;;;;;6314779;28;19908;-66
2023/10/21 18:16:33;;;;;;;;;;;19.70;61.00;;;;;;6305223;28;19919;-66
2023/10/21 18:19:34;;;;;;;;;;;19.70;61.00;;;;;;6314674;28;19913;-66
2023/10/21 18:22:34;;;;;;;;;;;19.70;61.00;;;;;;6314700;28;19908;-65